createdAt,value
2018-12-31T00:01:42.925Z,100.00
2018-12-31T00:04:16.244Z,100.00
2018-12-31T00:06:46.752Z,100.00
2018-12-31T00:09:17.302Z,100.00
2018-12-31T00:11:47.883Z,100.00
2018-12-31T00:14:18.393Z,100.00
2018-12-31T00:16:48.964Z,100.00
2018-12-31T00:19:19.500Z,100.00
2018-12-31T00:21:50.072Z,100.00
2018-12-31T00:24:20.562Z,100.00
2018-12-31T00:26:51.081Z,100.00
2018-12-31T00:29:21.645Z,100.00
2018-12-31T00:31:52.200Z,100.00
2018-12-31T00:34:22.746Z,100.00
2018-12-31T00:36:53.251Z,100.00
2018-12-31T00:39:23.760Z,100.00
2018-12-31T00:41:54.313Z,100.00
2018-12-31T00:44:24.873Z,100.00
2018-12-31T00:46:55.396Z,100.00
2018-12-31T00:49:25.927Z,100.00
2018-12-31T00:51:56.465Z,100.00
2018-12-31T00:54:26.987Z,100.00
2018-12-31T00:56:57.498Z,100.00
2018-12-31T00:59:28.049Z,100.00
2018-12-31T01:01:58.577Z,100.00
2018-12-31T01:04:29.114Z,100.00
2018-12-31T01:06:59.605Z,100.00
2018-12-31T01:09:30.206Z,100.00
2018-12-31T01:12:00.736Z,100.00
2018-12-31T01:14:31.238Z,100.00
2018-12-31T01:17:01.740Z,100.00
2018-12-31T01:19:32.282Z,100.00
2018-12-31T01:22:02.826Z,100.00
2018-12-31T01:24:33.326Z,100.00
2018-12-31T01:27:06.150Z,100.00
2018-12-31T01:29:36.672Z,100.00
2018-12-31T01:32:07.207Z,100.00
2018-12-31T01:34:37.755Z,100.00
2018-12-31T01:37:08.283Z,100.00
2018-12-31T01:39:38.861Z,100.00
2018-12-31T01:42:09.390Z,100.00
2018-12-31T01:44:39.943Z,100.00
2018-12-31T01:47:10.520Z,100.00
2018-12-31T01:49:41.124Z,100.00
2018-12-31T01:52:11.662Z,100.00
2018-12-31T01:54:43.179Z,100.00
2018-12-31T01:57:14.763Z,100.00
2018-12-31T01:59:46.272Z,100.00
2018-12-31T02:02:16.779Z,100.00
2018-12-31T02:04:49.726Z,100.00
2018-12-31T02:07:20.275Z,100.00
2018-12-31T02:09:50.857Z,100.00
2018-12-31T02:12:21.380Z,100.00
2018-12-31T02:14:54.968Z,100.00
2018-12-31T02:17:28.238Z,100.00
2018-12-31T02:19:58.800Z,100.00
2018-12-31T02:22:29.450Z,100.00
2018-12-31T02:24:59.962Z,100.00
2018-12-31T02:27:31.224Z,100.00
2018-12-31T02:30:01.731Z,100.00
2018-12-31T02:32:35.928Z,100.00
2018-12-31T02:35:06.558Z,100.00
2018-12-31T02:37:37.063Z,100.00
2018-12-31T02:40:07.761Z,100.00
2018-12-31T02:42:38.302Z,100.00
2018-12-31T02:45:09.108Z,100.00
2018-12-31T02:47:39.700Z,100.00
2018-12-31T02:50:10.253Z,100.00
2018-12-31T02:52:40.773Z,100.00
2018-12-31T02:55:11.378Z,100.00
2018-12-31T02:57:41.912Z,100.00
2018-12-31T03:00:12.486Z,100.00
2018-12-31T03:02:43.006Z,100.00
2018-12-31T03:05:13.544Z,100.00
2018-12-31T03:07:44.103Z,100.00
2018-12-31T03:10:14.601Z,100.00
2018-12-31T03:12:45.141Z,100.00
2018-12-31T03:15:15.943Z,100.00
2018-12-31T03:17:47.095Z,100.00
2018-12-31T03:20:17.632Z,100.00
2018-12-31T03:22:48.213Z,100.00
2018-12-31T03:25:18.740Z,100.00
2018-12-31T03:27:49.241Z,100.00
2018-12-31T03:30:19.790Z,100.00
2018-12-31T03:32:50.358Z,100.00
2018-12-31T03:35:21.062Z,100.00
2018-12-31T03:37:52.182Z,100.00
2018-12-31T03:40:22.695Z,100.00
2018-12-31T03:42:53.247Z,100.00
2018-12-31T03:45:23.789Z,100.00
2018-12-31T03:47:56.398Z,100.00
2018-12-31T03:50:26.589Z,100.00
2018-12-31T03:52:57.131Z,100.00
2018-12-31T03:55:27.678Z,100.00
2018-12-31T03:57:58.210Z,100.00
2018-12-31T04:00:28.722Z,100.00
2018-12-31T04:02:59.322Z,100.00
2018-12-31T04:05:29.862Z,100.00
2018-12-31T04:08:00.456Z,100.00
2018-12-31T04:10:30.984Z,100.00
2018-12-31T04:13:02.140Z,100.00
2018-12-31T04:15:32.640Z,100.00
2018-12-31T04:18:03.149Z,100.00
2018-12-31T04:20:33.661Z,100.00
2018-12-31T04:23:04.230Z,100.00
2018-12-31T04:25:34.757Z,100.00
2018-12-31T04:28:05.274Z,100.00
2018-12-31T04:30:35.859Z,100.00
2018-12-31T04:33:06.391Z,100.00
2018-12-31T04:35:37.452Z,100.00
2018-12-31T04:38:09.440Z,100.00
2018-12-31T04:40:40.561Z,100.00
2018-12-31T04:43:11.134Z,100.00
2018-12-31T04:45:41.642Z,100.00
2018-12-31T04:48:14.210Z,100.00
2018-12-31T04:50:44.763Z,100.00
2018-12-31T04:53:15.297Z,100.00
2018-12-31T04:55:45.843Z,100.00
2018-12-31T04:58:23.003Z,100.00
2018-12-31T05:00:49.051Z,100.00
2018-12-31T05:03:21.831Z,100.00
2018-12-31T05:05:52.338Z,100.00
2018-12-31T05:08:23.602Z,100.00
2018-12-31T05:10:54.118Z,100.00
2018-12-31T05:13:24.592Z,100.00
2018-12-31T05:15:55.759Z,100.00
2018-12-31T05:18:26.491Z,100.00
2018-12-31T05:20:57.689Z,100.00
2018-12-31T05:23:28.256Z,100.00
2018-12-31T05:25:58.791Z,100.00
2018-12-31T05:28:29.267Z,100.00
2018-12-31T05:30:59.898Z,100.00
2018-12-31T05:33:30.502Z,100.00
2018-12-31T05:36:01.714Z,100.00
2018-12-31T05:38:32.356Z,100.00
2018-12-31T05:41:03.597Z,100.00
2018-12-31T05:43:34.134Z,100.00
2018-12-31T05:46:04.650Z,100.00
2018-12-31T05:48:35.220Z,100.00
2018-12-31T05:51:07.307Z,100.00
2018-12-31T05:53:37.861Z,100.00
2018-12-31T05:56:08.390Z,100.00
2018-12-31T05:58:38.941Z,100.00
2018-12-31T06:01:10.697Z,100.00
2018-12-31T06:03:41.259Z,100.00
2018-12-31T06:06:11.825Z,100.00
2018-12-31T06:08:42.371Z,100.00
2018-12-31T06:11:12.938Z,100.00
2018-12-31T06:13:43.467Z,100.00
2018-12-31T06:16:14.024Z,100.00
2018-12-31T06:18:44.597Z,100.00
2018-12-31T06:21:15.108Z,100.00
2018-12-31T06:23:48.092Z,100.00
2018-12-31T06:26:18.617Z,100.00
2018-12-31T06:28:49.183Z,100.00
2018-12-31T06:31:19.711Z,100.00
2018-12-31T06:33:51.764Z,100.00
2018-12-31T06:36:22.287Z,100.00
2018-12-31T06:38:52.791Z,100.00
2018-12-31T06:41:23.335Z,100.00
2018-12-31T06:43:53.856Z,100.00
2018-12-31T06:46:24.316Z,100.00
2018-12-31T06:48:54.874Z,100.00
2018-12-31T06:51:25.377Z,100.00
2018-12-31T06:53:55.929Z,100.00
2018-12-31T06:56:26.503Z,100.00
2018-12-31T06:58:56.986Z,100.00
2018-12-31T07:01:27.552Z,100.00
2018-12-31T07:03:58.031Z,100.00
2018-12-31T07:06:28.644Z,100.00
2018-12-31T07:08:59.265Z,100.00
2018-12-31T07:11:33.422Z,100.00
2018-12-31T07:14:06.308Z,100.00
2018-12-31T07:16:41.247Z,100.00
2018-12-31T07:19:11.914Z,100.00
2018-12-31T07:21:42.447Z,100.00
2018-12-31T07:24:15.775Z,100.00
2018-12-31T07:26:46.303Z,100.00
2018-12-31T07:29:17.864Z,100.00
2018-12-31T07:31:48.466Z,100.00
2018-12-31T07:34:19.083Z,100.00
2018-12-31T07:36:49.655Z,100.00
2018-12-31T07:39:20.174Z,100.00
2018-12-31T07:41:50.718Z,100.00
2018-12-31T07:44:24.280Z,100.00
2018-12-31T07:46:54.819Z,100.00
2018-12-31T07:49:28.195Z,100.00
2018-12-31T07:51:58.730Z,100.00
2018-12-31T07:54:29.241Z,100.00
2018-12-31T07:56:59.827Z,100.00
2018-12-31T07:59:31.779Z,100.00
2018-12-31T08:02:02.298Z,100.00
2018-12-31T08:04:32.872Z,100.00
2018-12-31T08:07:03.418Z,100.00
2018-12-31T08:09:34.014Z,100.00
2018-12-31T08:12:04.506Z,100.00
2018-12-31T08:14:35.047Z,100.00
2018-12-31T08:17:05.588Z,100.00
2018-12-31T08:19:36.120Z,100.00
2018-12-31T08:22:06.690Z,100.00
2018-12-31T08:24:37.219Z,100.00
2018-12-31T08:27:07.773Z,100.00
2018-12-31T08:29:38.285Z,100.00
2018-12-31T08:32:08.883Z,100.00
2018-12-31T08:34:39.423Z,100.00
2018-12-31T08:37:09.967Z,100.00
2018-12-31T08:39:40.724Z,100.00
2018-12-31T08:42:11.237Z,100.00
2018-12-31T08:44:41.837Z,100.00
2018-12-31T08:47:13.640Z,100.00
2018-12-31T08:49:44.100Z,100.00
2018-12-31T08:52:14.849Z,100.00
2018-12-31T08:54:45.311Z,100.00
2018-12-31T08:57:22.282Z,100.00
2018-12-31T08:59:52.816Z,100.00
2018-12-31T09:02:23.355Z,100.00
2018-12-31T09:04:53.900Z,100.00
2018-12-31T09:07:24.439Z,100.00
2018-12-31T09:09:55.030Z,100.00
2018-12-31T09:12:25.623Z,100.00
2018-12-31T09:14:56.188Z,100.00
2018-12-31T09:17:26.730Z,100.00
2018-12-31T09:19:57.287Z,100.00
2018-12-31T09:22:27.807Z,100.00
2018-12-31T09:25:02.435Z,100.00
2018-12-31T09:27:35.887Z,100.00
2018-12-31T09:30:06.742Z,100.00
2018-12-31T09:32:40.507Z,100.00
2018-12-31T09:35:11.007Z,100.00
2018-12-31T09:37:41.555Z,100.00
2018-12-31T09:40:12.145Z,100.00
2018-12-31T09:42:42.627Z,100.00
2018-12-31T09:45:13.201Z,100.00
2018-12-31T09:47:46.497Z,100.00
2018-12-31T09:50:17.007Z,100.00
2018-12-31T09:52:50.400Z,100.00
2018-12-31T09:55:20.986Z,100.00
2018-12-31T09:57:54.536Z,100.00
2018-12-31T10:00:25.033Z,100.00
2018-12-31T10:02:55.526Z,100.00
2018-12-31T10:05:26.079Z,100.00
2018-12-31T10:07:56.620Z,100.00
2018-12-31T10:10:29.531Z,100.00
2018-12-31T10:13:00.056Z,100.00
2018-12-31T10:15:32.503Z,100.00
2018-12-31T10:18:03.022Z,100.00
2018-12-31T10:20:33.559Z,100.00
2018-12-31T10:23:04.068Z,100.00
2018-12-31T10:25:34.624Z,100.00
2018-12-31T10:28:07.509Z,100.00
2018-12-31T10:30:39.272Z,100.00
2018-12-31T10:33:09.817Z,100.00
2018-12-31T10:35:40.359Z,100.00
2018-12-31T10:38:10.905Z,100.00
2018-12-31T10:40:41.409Z,100.00
2018-12-31T10:43:11.947Z,100.00
2018-12-31T10:45:42.472Z,100.00
2018-12-31T10:48:13.024Z,100.00
2018-12-31T10:50:43.589Z,100.00
2018-12-31T10:53:14.089Z,100.00
2018-12-31T10:55:53.657Z,100.00
2018-12-31T10:58:24.210Z,100.00
2018-12-31T11:00:57.217Z,100.00
2018-12-31T11:03:27.800Z,100.00
2018-12-31T11:05:58.289Z,100.00
2018-12-31T11:08:28.830Z,100.00
2018-12-31T11:10:59.414Z,100.00
2018-12-31T11:13:29.901Z,100.00
2018-12-31T11:16:01.773Z,100.00
2018-12-31T11:18:32.307Z,100.00
2018-12-31T11:21:02.842Z,100.00
2018-12-31T11:23:33.428Z,100.00
2018-12-31T11:26:04.041Z,100.00
2018-12-31T11:28:34.542Z,100.00
2018-12-31T11:31:05.103Z,100.00
2018-12-31T11:33:35.626Z,100.00
2018-12-31T11:36:08.997Z,100.00
2018-12-31T11:38:39.490Z,100.00
2018-12-31T11:41:10.041Z,100.00
2018-12-31T11:43:40.567Z,100.00
2018-12-31T11:46:11.131Z,100.00
2018-12-31T11:48:41.688Z,100.00
2018-12-31T11:51:12.360Z,100.00
2018-12-31T11:53:42.847Z,100.00
2018-12-31T11:56:14.429Z,100.00
2018-12-31T11:58:44.981Z,100.00
2018-12-31T12:01:17.341Z,100.00
2018-12-31T12:03:47.897Z,100.00
2018-12-31T12:06:18.470Z,100.00
2018-12-31T12:08:49.009Z,100.00
2018-12-31T12:11:19.631Z,100.00
2018-12-31T12:13:50.097Z,100.00
2018-12-31T12:16:20.697Z,100.00
2018-12-31T12:18:51.273Z,100.00
2018-12-31T12:21:21.811Z,100.00
2018-12-31T12:23:52.379Z,100.00
2018-12-31T12:26:22.860Z,100.00
2018-12-31T12:28:53.461Z,100.00
2018-12-31T12:31:24.368Z,100.00
2018-12-31T12:33:54.882Z,100.00
2018-12-31T12:36:25.394Z,100.00
2018-12-31T12:38:56.161Z,100.00
2018-12-31T12:41:26.645Z,100.00
2018-12-31T12:43:57.553Z,100.00
2018-12-31T12:46:28.088Z,100.00
2018-12-31T12:48:58.613Z,100.00
2018-12-31T12:51:29.104Z,100.00
2018-12-31T12:53:59.670Z,100.00
2018-12-31T12:56:30.193Z,100.00
2018-12-31T12:59:00.767Z,100.00
2018-12-31T13:01:32.566Z,100.00
2018-12-31T13:04:03.133Z,100.00
2018-12-31T13:06:33.877Z,100.00
2018-12-31T13:09:05.184Z,100.00
2018-12-31T13:11:35.764Z,100.00
2018-12-31T13:14:06.314Z,100.00
2018-12-31T13:16:37.118Z,100.00
2018-12-31T13:19:07.672Z,100.00
2018-12-31T13:21:38.232Z,100.00
2018-12-31T13:24:18.894Z,100.00
2018-12-31T13:26:53.107Z,100.00
2018-12-31T13:29:23.901Z,100.00
2018-12-31T13:31:54.461Z,100.00
2018-12-31T13:34:24.977Z,100.00
2018-12-31T13:36:55.501Z,100.00
2018-12-31T13:39:26.078Z,100.00
2018-12-31T13:41:57.982Z,100.00
2018-12-31T13:44:28.553Z,99.94
2018-12-31T13:46:59.086Z,100.00
2018-12-31T13:49:30.843Z,100.00
2018-12-31T13:52:01.496Z,99.81
2018-12-31T13:54:32.074Z,100.00
2018-12-31T13:57:02.612Z,100.00
2018-12-31T13:59:33.457Z,100.00
2018-12-31T14:02:03.991Z,100.00
2018-12-31T14:04:34.509Z,99.11
2018-12-31T14:07:05.083Z,99.01
2018-12-31T14:09:35.626Z,98.81
2018-12-31T14:12:06.191Z,98.93
2018-12-31T14:14:36.784Z,98.34
2018-12-31T14:17:07.374Z,98.30
2018-12-31T14:19:38.008Z,98.85
2018-12-31T14:22:08.833Z,99.27
2018-12-31T14:24:40.179Z,99.03
2018-12-31T14:27:10.667Z,99.23
2018-12-31T14:29:41.218Z,99.85
2018-12-31T14:32:11.732Z,100.00
2018-12-31T14:34:42.333Z,100.00
2018-12-31T14:37:12.886Z,100.00
2018-12-31T14:39:43.352Z,99.98
2018-12-31T14:42:16.412Z,100.00
2018-12-31T14:44:46.225Z,100.00
2018-12-31T14:47:18.440Z,100.00
2018-12-31T14:49:49.155Z,100.00
2018-12-31T14:52:19.641Z,100.00
2018-12-31T14:54:50.482Z,100.00
2018-12-31T14:57:21.083Z,100.00
2018-12-31T14:59:51.664Z,100.00
2018-12-31T15:02:22.192Z,100.00
2018-12-31T15:04:52.681Z,100.00
2018-12-31T15:07:23.220Z,100.00
2018-12-31T15:09:53.800Z,100.00
2018-12-31T15:12:24.381Z,100.00
2018-12-31T15:14:54.987Z,100.00
2018-12-31T15:17:25.799Z,100.00
2018-12-31T15:19:56.273Z,100.00
2018-12-31T15:22:29.165Z,100.00
2018-12-31T15:24:59.166Z,100.00
2018-12-31T15:27:29.646Z,100.00
2018-12-31T15:30:00.267Z,100.00
2018-12-31T15:32:30.850Z,100.00
2018-12-31T15:35:01.437Z,100.00
2018-12-31T15:37:31.952Z,100.00
2018-12-31T15:40:02.519Z,100.00
2018-12-31T15:42:33.073Z,100.00
2018-12-31T15:45:03.591Z,100.00
2018-12-31T15:47:34.123Z,100.00
2018-12-31T15:50:07.945Z,100.00
2018-12-31T15:52:39.491Z,100.00
2018-12-31T15:55:10.102Z,100.00
2018-12-31T15:57:40.653Z,100.00
2018-12-31T16:00:12.194Z,100.00
2018-12-31T16:02:42.686Z,100.00
2018-12-31T16:05:13.262Z,100.00
2018-12-31T16:07:45.955Z,100.00
2018-12-31T16:10:16.060Z,100.00
2018-12-31T16:12:47.329Z,100.00
2018-12-31T16:15:17.866Z,100.00
2018-12-31T16:17:48.446Z,100.00
2018-12-31T16:20:19.073Z,100.00
2018-12-31T16:22:51.918Z,100.00
2018-12-31T16:25:23.131Z,100.00
2018-12-31T16:27:53.682Z,100.00
2018-12-31T16:30:24.276Z,100.00
2018-12-31T16:32:57.720Z,100.00
2018-12-31T16:35:28.347Z,100.00
2018-12-31T16:37:58.986Z,100.00
2018-12-31T16:40:29.585Z,100.00
2018-12-31T16:43:00.199Z,100.00
2018-12-31T16:45:31.445Z,100.00
2018-12-31T16:48:02.212Z,100.00
2018-12-31T16:50:32.824Z,100.00
2018-12-31T16:53:03.460Z,100.00
2018-12-31T16:55:34.212Z,100.00
2018-12-31T16:58:04.863Z,100.00
2018-12-31T17:00:35.403Z,100.00
2018-12-31T17:03:06.638Z,100.00
2018-12-31T17:05:37.280Z,100.00
2018-12-31T17:08:08.427Z,100.00
2018-12-31T17:10:39.077Z,100.00
2018-12-31T17:13:09.709Z,100.00
2018-12-31T17:15:40.389Z,100.00
2018-12-31T17:18:11.054Z,100.00
2018-12-31T17:20:42.156Z,100.00
2018-12-31T17:23:12.725Z,100.00
2018-12-31T17:25:43.356Z,100.00
2018-12-31T17:28:14.215Z,100.00
2018-12-31T17:30:44.968Z,100.00
2018-12-31T17:33:15.593Z,100.00
2018-12-31T17:35:48.300Z,100.00
2018-12-31T17:38:18.881Z,100.00
2018-12-31T17:40:49.525Z,100.00
2018-12-31T17:43:20.103Z,100.00
2018-12-31T17:45:50.672Z,100.00
2018-12-31T17:48:21.200Z,100.00
2018-12-31T17:50:51.798Z,100.00
2018-12-31T17:53:22.910Z,100.00
2018-12-31T17:55:53.445Z,100.00
2018-12-31T17:58:23.937Z,100.00
2018-12-31T18:00:54.442Z,100.00
2018-12-31T18:03:26.675Z,100.00
2018-12-31T18:05:57.278Z,100.00
2018-12-31T18:08:27.798Z,100.00
2018-12-31T18:10:58.314Z,100.00
2018-12-31T18:13:28.919Z,100.00
2018-12-31T18:15:59.432Z,100.00
2018-12-31T18:18:29.985Z,100.00
2018-12-31T18:21:00.577Z,100.00
2018-12-31T18:23:31.110Z,100.00
2018-12-31T18:26:01.651Z,100.00
2018-12-31T18:28:32.209Z,100.00
2018-12-31T18:31:02.720Z,100.00
2018-12-31T18:33:33.341Z,100.00
2018-12-31T18:36:03.876Z,100.00
2018-12-31T18:38:34.736Z,100.00
2018-12-31T18:41:05.353Z,100.00
2018-12-31T18:43:35.894Z,100.00
2018-12-31T18:46:06.471Z,100.00
2018-12-31T18:48:37.171Z,100.00
2018-12-31T18:51:07.730Z,100.00
2018-12-31T18:53:39.664Z,100.00
2018-12-31T18:56:10.356Z,100.00
2018-12-31T18:58:43.040Z,100.00
2018-12-31T19:01:13.916Z,100.00
2018-12-31T19:03:44.759Z,100.00
2018-12-31T19:06:15.281Z,100.00
2018-12-31T19:08:45.768Z,100.00
2018-12-31T19:11:17.040Z,100.00
2018-12-31T19:13:47.673Z,100.00
2018-12-31T19:16:18.250Z,100.00
2018-12-31T19:18:50.913Z,100.00
2018-12-31T19:21:21.506Z,100.00
2018-12-31T19:23:52.674Z,100.00
2018-12-31T19:26:23.204Z,100.00
2018-12-31T19:28:53.763Z,100.00
2018-12-31T19:31:24.277Z,100.00
2018-12-31T19:33:54.787Z,100.00
2018-12-31T19:36:25.352Z,100.00
2018-12-31T19:38:55.908Z,100.00
2018-12-31T19:41:26.396Z,100.00
2018-12-31T19:43:57.003Z,100.00
2018-12-31T19:46:27.680Z,100.00
2018-12-31T19:49:00.271Z,100.00
2018-12-31T19:51:30.817Z,100.00
2018-12-31T19:54:01.329Z,100.00
2018-12-31T19:56:31.938Z,100.00
2018-12-31T19:59:04.658Z,100.00
2018-12-31T20:01:35.104Z,100.00
2018-12-31T20:04:05.701Z,100.00
2018-12-31T20:06:36.298Z,100.00
2018-12-31T20:09:09.226Z,100.00
2018-12-31T20:11:39.746Z,100.00
2018-12-31T20:14:10.316Z,100.00
2018-12-31T20:16:40.864Z,100.00
2018-12-31T20:19:12.185Z,100.00
2018-12-31T20:21:42.770Z,100.00
2018-12-31T20:24:13.320Z,100.00
2018-12-31T20:26:43.871Z,100.00
2018-12-31T20:29:16.591Z,100.00
2018-12-31T20:31:47.167Z,100.00
2018-12-31T20:34:17.711Z,100.00
2018-12-31T20:36:48.893Z,100.00
2018-12-31T20:39:20.126Z,100.00
2018-12-31T20:41:50.623Z,100.00
2018-12-31T20:44:21.384Z,100.00
2018-12-31T20:46:55.522Z,100.00
2018-12-31T20:49:25.656Z,100.00
2018-12-31T20:51:56.240Z,100.00
2018-12-31T20:54:26.787Z,100.00
2018-12-31T20:56:58.532Z,100.00
2018-12-31T20:59:29.039Z,100.00
2018-12-31T21:01:59.603Z,100.00
2018-12-31T21:04:30.177Z,100.00
2018-12-31T21:07:00.682Z,100.00
2018-12-31T21:09:31.201Z,100.00
2018-12-31T21:12:01.748Z,100.00
2018-12-31T21:14:32.711Z,100.00
2018-12-31T21:17:03.343Z,100.00
2018-12-31T21:19:35.137Z,100.00
2018-12-31T21:22:06.312Z,100.00
2018-12-31T21:24:36.829Z,100.00
2018-12-31T21:27:07.381Z,100.00
2018-12-31T21:29:37.944Z,100.00
2018-12-31T21:32:08.503Z,100.00
2018-12-31T21:34:39.091Z,100.00
2018-12-31T21:37:10.227Z,100.00
2018-12-31T21:39:40.812Z,100.00
2018-12-31T21:42:11.395Z,100.00
2018-12-31T21:44:41.906Z,100.00
2018-12-31T21:47:12.458Z,100.00
2018-12-31T21:49:44.469Z,100.00
2018-12-31T21:52:15.025Z,100.00
2018-12-31T21:54:45.841Z,100.00
2018-12-31T21:57:18.153Z,100.00
2018-12-31T21:59:48.774Z,100.00
2018-12-31T22:02:19.308Z,100.00
2018-12-31T22:04:49.907Z,100.00
2018-12-31T22:07:20.508Z,100.00
2018-12-31T22:09:51.053Z,100.00
2018-12-31T22:12:21.588Z,100.00
2018-12-31T22:14:52.124Z,100.00
2018-12-31T22:17:23.057Z,100.00
2018-12-31T22:19:53.570Z,100.00
2018-12-31T22:22:24.099Z,100.00
2018-12-31T22:24:54.632Z,100.00
2018-12-31T22:27:25.184Z,100.00
2018-12-31T22:29:55.735Z,100.00
2018-12-31T22:32:26.239Z,100.00
2018-12-31T22:34:56.779Z,100.00
2018-12-31T22:37:27.250Z,100.00
2018-12-31T22:39:57.716Z,100.00
2018-12-31T22:42:28.271Z,100.00
2018-12-31T22:44:58.757Z,100.00
2018-12-31T22:47:29.423Z,100.00
2018-12-31T22:50:01.140Z,100.00
2018-12-31T22:52:31.975Z,100.00
2018-12-31T22:55:02.538Z,100.00
2018-12-31T22:57:33.476Z,100.00
2018-12-31T23:00:04.792Z,100.00
2018-12-31T23:02:35.939Z,100.00
2018-12-31T23:05:10.245Z,100.00
2018-12-31T23:07:41.731Z,100.00
2018-12-31T23:10:12.368Z,100.00
2018-12-31T23:12:44.397Z,100.00
2018-12-31T23:15:20.749Z,100.00
2018-12-31T23:17:51.705Z,100.00
2018-12-31T23:20:25.501Z,100.00
2018-12-31T23:22:58.331Z,100.00
2018-12-31T23:25:28.854Z,100.00
2018-12-31T23:27:59.410Z,100.00
2018-12-31T23:30:33.055Z,100.00
2018-12-31T23:33:03.616Z,100.00
2018-12-31T23:35:34.137Z,100.00
2018-12-31T23:38:04.721Z,100.00
2018-12-31T23:40:36.106Z,100.00
2018-12-31T23:43:06.864Z,100.00
2018-12-31T23:45:37.776Z,100.00
2018-12-31T23:48:08.345Z,100.00
2018-12-31T23:50:38.879Z,100.00
2018-12-31T23:53:09.447Z,100.00
2018-12-31T23:55:39.987Z,100.00
2018-12-31T23:58:10.533Z,100.00
